Eatonville, WA

4:05 PM PDT on September 03, 2015 (GMT -0700)
Central Eatonville | | Change Station
CLOSE
Current Station
Personal Weather Station
Location: Eatonville, WA
Elevation: 850 ft
Nearby Weather Stations

Elev 850 ft 46.87 °N, 122.27 °W | Updated 18 seconds ago

Clear
Clear
59.1 °F
Feels Like 59.1 °F
N
3.0
Wind Variable Wind from NE
Gusts 4.0 mph

Today
High -- | Low -- °F
--% Chance of Precip.
Yesterday
High -- | Low -- °F
Precip. -- in
6:31 AM 7:44 PM
Waning Gibbous, 66% visible
Pressure 30.00 in
Visibility 10.0 miles
Clouds Few 8500 ft
Dew Point 49 °F
Humidity 68%
Rainfall 0.00 in
Snow Depth Not available.
UV 4 out of 12
Pollen 1.70 out of 12
Air Quality Not available.
Flu Activity Not available.
METAR KPLU 032255Z AUTO 00000KT 10SM FEW085 17/10 A3000 RMK AO2
Pressure 30.00 in
Visibility 10.0 miles
Clouds Few 8500 ft
Dew Point 49 °F
Humidity 68%
Rainfall 0.00 in
Snow Depth Not available.
UV 4 out of 12
Pollen 1.70 out of 12
Air Quality Not available.
Flu Activity Not available.
METAR KPLU 032255Z AUTO 00000KT 10SM FEW085 17/10 A3000 RMK AO2

10-Day Weather Forecast

×

Almanac

Astronomy

Sep. 03, 2015 Rise Set
Actual Time
Civil Twilight
Nautical Twilight
Astronomical Twilight
Moon
Length of Visible Light
Length of Day
Tomorrow will be .
, % of the Moon is Illuminated

Today's Extremes

State Highs State Lows

Community

WunderPhotos

Upload Photos

1,852,058 photos uploaded!

WunderBlogs® & News

Nearby

Air Quality

  Air Quality AQ Index Pollutant
Not available.

Snow Depth

Station Depth Elevation

Earthquake Activity

City Distance Mag. Time & Date
Minimum magnitude displayed is 2.5.

Coastal Water Temperatures

Place Temperature

Stations

Nearby Weather Stations

Station Location Temp. Windchill Dew Point Humidity Wind Precip. Elev Updated Type